Westphalia, Michigan
Current Conditions -  °F | °C
As of 5:54 PM on Wednesday 22 Oct 2014 (Local Time) from KY70 Reporting Station
Overcast Overcast  
Wind Chill: 45°   Ceiling: 2200
Heat Index: 47°   Visibility: 10mi
Dew Point: 38°   Wind: 5mph
Humidity: 71%   Direction: 70°ENE
Pressure: 30.31"   Gusts: NA
Location:  42.93°N, 84.8°W
Report Text: KY70 222154Z AUTO 07004KT 10SM OVC022 08/03 A3031 RMK AO2 T00820033
Loading
Personal Weather Stations






























Interactive Weather Map
Tropical Storm Tracking
New forecast layout! Learn more

10-Day Weather Forecast

Advertisements
Track Severe Weather on mobile